Dundee, Oregon
Current Conditions -  °F | °C
As of 7:53 PM on Monday 22 Dec 2014 (Local Time) from KMMV Reporting Station
Overcast Overcast  
Wind Chill: 45°   Ceiling: 8500
Heat Index: 47°   Visibility: 10mi
Dew Point: 45°   Wind: 5mph
Humidity: 93%   Direction: 330°NNW
Pressure: 30.34"   Gusts: NA
Location:  45.28°N, 123.01°W
Report Text: KMMV 230353Z AUTO 33004KT 10SM OVC085 08/07 A3034 RMK AO2 SLP273 T00830072
Loading
Personal Weather Stations






























Interactive Weather Map New forecast layout! Learn more

10-Day Weather Forecast

Advertisements
Track Severe Weather on mobile